sensor_id;sensor_type;location;lat;lon;timestamp;temperature;humidity
5164;DHT22;2601;50.224;10.126;2022-10-30T00:00:37;11.50;99.90
5164;DHT22;2601;50.224;10.126;2022-10-30T00:03:02;11.50;99.90
5164;DHT22;2601;50.224;10.126;2022-10-30T00:05:28;11.40;99.90
5164;DHT22;2601;50.224;10.126;2022-10-30T00:07:54;11.40;99.90
5164;DHT22;2601;50.224;10.126;2022-10-30T00:10:20;11.30;99.90
5164;DHT22;2601;50.224;10.126;2022-10-30T00:12:46;11.30;99.90
5164;DHT22;2601;50.224;10.126;2022-10-30T00:15:12;11.30;99.90
5164;DHT22;2601;50.224;10.126;2022-10-30T00:17:38;11.30;99.90
5164;DHT22;2601;50.224;10.126;2022-10-30T00:20:04;11.20;99.90
5164;DHT22;2601;50.224;10.126;2022-10-30T00:22:30;11.30;99.90
5164;DHT22;2601;50.224;10.126;2022-10-30T00:24:56;11.30;99.90
5164;DHT22;2601;50.224;10.126;2022-10-30T00:27:21;11.40;99.90
5164;DHT22;2601;50.224;10.126;2022-10-30T00:29:47;11.50;99.90
5164;DHT22;2601;50.224;10.126;2022-10-30T00:32:12;11.50;99.90
5164;DHT22;2601;50.224;10.126;2022-10-30T00:34:38;11.50;99.90
5164;DHT22;2601;50.224;10.126;2022-10-30T00:37:04;11.40;99.90
5164;DHT22;2601;50.224;10.126;2022-10-30T00:39:29;11.30;99.90
5164;DHT22;2601;50.224;10.126;2022-10-30T00:41:55;11.30;99.90
5164;DHT22;2601;50.224;10.126;2022-10-30T00:47:05;11.60;99.90
5164;DHT22;2601;50.224;10.126;2022-10-30T00:49:37;11.50;99.90
5164;DHT22;2601;50.224;10.126;2022-10-30T00:52:06;11.50;99.90
5164;DHT22;2601;50.224;10.126;2022-10-30T00:54:34;11.60;99.90
5164;DHT22;2601;50.224;10.126;2022-10-30T00:57:02;11.70;99.90
5164;DHT22;2601;50.224;10.126;2022-10-30T00:59:32;11.70;99.90
5164;DHT22;2601;50.224;10.126;2022-10-30T01:02:00;11.70;99.90
5164;DHT22;2601;50.224;10.126;2022-10-30T01:04:27;11.60;99.90
5164;DHT22;2601;50.224;10.126;2022-10-30T01:06:53;11.50;99.90
5164;DHT22;2601;50.224;10.126;2022-10-30T01:09:20;11.40;99.90
5164;DHT22;2601;50.224;10.126;2022-10-30T01:11:47;11.30;99.90
5164;DHT22;2601;50.224;10.126;2022-10-30T01:14:15;11.30;99.90
5164;DHT22;2601;50.224;10.126;2022-10-30T01:20:03;11.30;99.90
5164;DHT22;2601;50.224;10.126;2022-10-30T01:28:07;11.20;99.90
5164;DHT22;2601;50.224;10.126;2022-10-30T01:38:54;11.30;99.90
5164;DHT22;2601;50.224;10.126;2022-10-30T01:41:21;11.40;99.90
5164;DHT22;2601;50.224;10.126;2022-10-30T01:43:51;11.50;99.90
5164;DHT22;2601;50.224;10.126;2022-10-30T01:55:02;11.60;99.90
5164;DHT22;2601;50.224;10.126;2022-10-30T01:57:43;11.60;99.90
5164;DHT22;2601;50.224;10.126;2022-10-30T02:00:14;11.50;99.90
5164;DHT22;2601;50.224;10.126;2022-10-30T02:02:41;11.40;99.90
5164;DHT22;2601;50.224;10.126;2022-10-30T02:05:08;11.40;99.90
5164;DHT22;2601;50.224;10.126;2022-10-30T02:07:36;11.30;99.90
5164;DHT22;2601;50.224;10.126;2022-10-30T02:10:03;11.30;99.90
5164;DHT22;2601;50.224;10.126;2022-10-30T02:12:30;11.20;99.90
5164;DHT22;2601;50.224;10.126;2022-10-30T02:14:58;11.20;99.90
5164;DHT22;2601;50.224;10.126;2022-10-30T02:17:25;11.10;99.90
5164;DHT22;2601;50.224;10.126;2022-10-30T02:19:51;11.00;99.90
5164;DHT22;2601;50.224;10.126;2022-10-30T02:22:17;11.10;99.90
5164;DHT22;2601;50.224;10.126;2022-10-30T02:24:43;11.30;99.90
5164;DHT22;2601;50.224;10.126;2022-10-30T02:27:09;11.30;99.90
5164;DHT22;2601;50.224;10.126;2022-10-30T02:29:35;11.20;99.90
5164;DHT22;2601;50.224;10.126;2022-10-30T02:32:01;11.20;99.90
5164;DHT22;2601;50.224;10.126;2022-10-30T02:34:26;11.30;99.90
5164;DHT22;2601;50.224;10.126;2022-10-30T02:36:52;11.10;99.90
5164;DHT22;2601;50.224;10.126;2022-10-30T02:39:17;11.00;99.90
5164;DHT22;2601;50.224;10.126;2022-10-30T02:41:46;11.10;99.90
5164;DHT22;2601;50.224;10.126;2022-10-30T02:44:11;11.00;99.90
5164;DHT22;2601;50.224;10.126;2022-10-30T02:46:37;10.90;99.90
5164;DHT22;2601;50.224;10.126;2022-10-30T02:49:03;10.80;99.90
5164;DHT22;2601;50.224;10.126;2022-10-30T02:51:30;10.70;99.90
5164;DHT22;2601;50.224;10.126;2022-10-30T02:53:57;10.80;99.90
5164;DHT22;2601;50.224;10.126;2022-10-30T02:56:22;10.80;99.90
5164;DHT22;2601;50.224;10.126;2022-10-30T02:58:48;10.70;99.90
5164;DHT22;2601;50.224;10.126;2022-10-30T03:01:15;10.70;99.90
5164;DHT22;2601;50.224;10.126;2022-10-30T03:03:41;10.70;99.90
5164;DHT22;2601;50.224;10.126;2022-10-30T03:06:09;10.90;99.90
5164;DHT22;2601;50.224;10.126;2022-10-30T03:08:35;10.90;99.90
5164;DHT22;2601;50.224;10.126;2022-10-30T03:11:04;10.90;99.90
5164;DHT22;2601;50.224;10.126;2022-10-30T03:13:31;10.80;99.90
5164;DHT22;2601;50.224;10.126;2022-10-30T03:16:06;10.90;99.90
5164;DHT22;2601;50.224;10.126;2022-10-30T03:18:33;10.90;99.90
5164;DHT22;2601;50.224;10.126;2022-10-30T03:21:00;11.00;99.90
5164;DHT22;2601;50.224;10.126;2022-10-30T03:23:26;11.00;99.90
5164;DHT22;2601;50.224;10.126;2022-10-30T03:25:54;11.10;99.90
5164;DHT22;2601;50.224;10.126;2022-10-30T03:28:21;11.00;99.90
5164;DHT22;2601;50.224;10.126;2022-10-30T03:30:46;11.00;99.90
5164;DHT22;2601;50.224;10.126;2022-10-30T03:33:12;10.90;99.90
5164;DHT22;2601;50.224;10.126;2022-10-30T03:35:38;10.90;99.90
5164;DHT22;2601;50.224;10.126;2022-10-30T03:38:04;10.90;99.90
5164;DHT22;2601;50.224;10.126;2022-10-30T03:40:29;10.80;99.90
5164;DHT22;2601;50.224;10.126;2022-10-30T03:42:55;10.80;99.90
5164;DHT22;2601;50.224;10.126;2022-10-30T03:45:20;10.70;99.90
5164;DHT22;2601;50.224;10.126;2022-10-30T03:47:46;10.70;99.90
5164;DHT22;2601;50.224;10.126;2022-10-30T03:50:11;10.70;99.90
5164;DHT22;2601;50.224;10.126;2022-10-30T03:52:37;10.90;99.90
5164;DHT22;2601;50.224;10.126;2022-10-30T03:55:03;11.00;99.90
5164;DHT22;2601;50.224;10.126;2022-10-30T03:57:28;10.90;99.90
5164;DHT22;2601;50.224;10.126;2022-10-30T03:59:54;10.80;99.90
5164;DHT22;2601;50.224;10.126;2022-10-30T04:02:19;10.80;99.90
5164;DHT22;2601;50.224;10.126;2022-10-30T04:04:45;10.70;99.90
5164;DHT22;2601;50.224;10.126;2022-10-30T04:07:10;10.90;99.90
5164;DHT22;2601;50.224;10.126;2022-10-30T04:09:36;10.80;99.90
5164;DHT22;2601;50.224;10.126;2022-10-30T04:12:01;10.70;99.90
5164;DHT22;2601;50.224;10.126;2022-10-30T04:14:27;10.70;99.90
5164;DHT22;2601;50.224;10.126;2022-10-30T04:16:53;10.70;99.90
5164;DHT22;2601;50.224;10.126;2022-10-30T04:19:18;10.70;99.90
5164;DHT22;2601;50.224;10.126;2022-10-30T04:21:44;10.70;99.90
5164;DHT22;2601;50.224;10.126;2022-10-30T04:24:12;10.60;99.90
5164;DHT22;2601;50.224;10.126;2022-10-30T04:26:40;10.50;99.90
5164;DHT22;2601;50.224;10.126;2022-10-30T04:29:06;10.50;99.90
5164;DHT22;2601;50.224;10.126;2022-10-30T04:31:31;10.50;99.90
5164;DHT22;2601;50.224;10.126;2022-10-30T04:33:57;10.60;99.90
5164;DHT22;2601;50.224;10.126;2022-10-30T04:36:22;10.60;99.90
5164;DHT22;2601;50.224;10.126;2022-10-30T04:38:54;10.60;99.90
5164;DHT22;2601;50.224;10.126;2022-10-30T04:41:20;10.50;99.90
5164;DHT22;2601;50.224;10.126;2022-10-30T04:43:47;10.50;99.90
5164;DHT22;2601;50.224;10.126;2022-10-30T04:46:13;10.40;99.90
5164;DHT22;2601;50.224;10.126;2022-10-30T04:48:38;10.40;99.90
5164;DHT22;2601;50.224;10.126;2022-10-30T04:51:05;10.20;99.90
5164;DHT22;2601;50.224;10.126;2022-10-30T04:53:31;10.20;99.90
5164;DHT22;2601;50.224;10.126;2022-10-30T04:55:57;10.20;99.90
5164;DHT22;2601;50.224;10.126;2022-10-30T04:58:22;10.20;99.90
5164;DHT22;2601;50.224;10.126;2022-10-30T05:00:48;10.20;99.90
5164;DHT22;2601;50.224;10.126;2022-10-30T05:03:22;10.20;99.90
5164;DHT22;2601;50.224;10.126;2022-10-30T05:06:02;10.40;99.90
5164;DHT22;2601;50.224;10.126;2022-10-30T05:08:29;10.50;99.90
5164;DHT22;2601;50.224;10.126;2022-10-30T05:10:55;10.50;99.90
5164;DHT22;2601;50.224;10.126;2022-10-30T05:13:21;10.40;99.90
5164;DHT22;2601;50.224;10.126;2022-10-30T05:15:46;10.30;99.90
5164;DHT22;2601;50.224;10.126;2022-10-30T05:18:12;10.40;99.90
5164;DHT22;2601;50.224;10.126;2022-10-30T05:20:38;10.30;99.90
5164;DHT22;2601;50.224;10.126;2022-10-30T05:23:04;10.30;99.90
5164;DHT22;2601;50.224;10.126;2022-10-30T05:25:30;10.40;99.90
5164;DHT22;2601;50.224;10.126;2022-10-30T05:28:03;10.40;99.90
5164;DHT22;2601;50.224;10.126;2022-10-30T05:30:30;10.40;99.90
5164;DHT22;2601;50.224;10.126;2022-10-30T05:33:00;10.30;99.90
5164;DHT22;2601;50.224;10.126;2022-10-30T05:35:27;10.30;99.90
5164;DHT22;2601;50.224;10.126;2022-10-30T05:37:52;10.20;99.90
5164;DHT22;2601;50.224;10.126;2022-10-30T05:40:18;10.10;99.90
5164;DHT22;2601;50.224;10.126;2022-10-30T05:42:47;10.10;99.90
5164;DHT22;2601;50.224;10.126;2022-10-30T05:45:14;10.00;99.90
5164;DHT22;2601;50.224;10.126;2022-10-30T05:47:39;10.20;99.90
5164;DHT22;2601;50.224;10.126;2022-10-30T05:50:06;10.10;99.90
5164;DHT22;2601;50.224;10.126;2022-10-30T05:52:32;10.10;99.90
5164;DHT22;2601;50.224;10.126;2022-10-30T05:54:57;10.10;99.90
5164;DHT22;2601;50.224;10.126;2022-10-30T05:57:23;10.00;99.90
5164;DHT22;2601;50.224;10.126;2022-10-30T05:59:48;9.90;99.90
5164;DHT22;2601;50.224;10.126;2022-10-30T06:02:16;9.90;99.90
5164;DHT22;2601;50.224;10.126;2022-10-30T06:04:41;10.00;99.90
5164;DHT22;2601;50.224;10.126;2022-10-30T06:07:07;10.00;99.90
5164;DHT22;2601;50.224;10.126;2022-10-30T06:09:32;10.00;99.90
5164;DHT22;2601;50.224;10.126;2022-10-30T06:11:58;10.00;99.90
5164;DHT22;2601;50.224;10.126;2022-10-30T06:14:24;10.00;99.90
5164;DHT22;2601;50.224;10.126;2022-10-30T06:16:49;10.00;99.90
5164;DHT22;2601;50.224;10.126;2022-10-30T06:19:15;10.00;99.90
5164;DHT22;2601;50.224;10.126;2022-10-30T06:21:40;10.10;99.90
5164;DHT22;2601;50.224;10.126;2022-10-30T06:24:06;10.20;99.90
5164;DHT22;2601;50.224;10.126;2022-10-30T06:26:32;10.20;99.90
5164;DHT22;2601;50.224;10.126;2022-10-30T06:28:57;10.30;99.90
5164;DHT22;2601;50.224;10.126;2022-10-30T06:31:23;10.30;99.90
5164;DHT22;2601;50.224;10.126;2022-10-30T06:33:49;10.40;99.90
5164;DHT22;2601;50.224;10.126;2022-10-30T06:36:14;10.50;99.90
5164;DHT22;2601;50.224;10.126;2022-10-30T06:38:42;10.40;99.90
5164;DHT22;2601;50.224;10.126;2022-10-30T06:41:08;10.30;99.90
5164;DHT22;2601;50.224;10.126;2022-10-30T06:43:33;10.40;99.90
5164;DHT22;2601;50.224;10.126;2022-10-30T06:45:59;10.40;99.90
5164;DHT22;2601;50.224;10.126;2022-10-30T06:48:25;10.30;99.90
5164;DHT22;2601;50.224;10.126;2022-10-30T06:50:55;10.30;99.90
5164;DHT22;2601;50.224;10.126;2022-10-30T06:53:21;10.30;99.90
5164;DHT22;2601;50.224;10.126;2022-10-30T06:55:54;10.30;99.90
5164;DHT22;2601;50.224;10.126;2022-10-30T06:58:20;10.30;99.90
5164;DHT22;2601;50.224;10.126;2022-10-30T07:00:46;10.40;99.90
5164;DHT22;2601;50.224;10.126;2022-10-30T07:03:12;10.30;99.90
5164;DHT22;2601;50.224;10.126;2022-10-30T07:05:37;10.30;99.90
5164;DHT22;2601;50.224;10.126;2022-10-30T07:08:03;10.30;99.90
5164;DHT22;2601;50.224;10.126;2022-10-30T07:10:29;10.30;99.90
5164;DHT22;2601;50.224;10.126;2022-10-30T07:12:55;10.20;99.90
5164;DHT22;2601;50.224;10.126;2022-10-30T07:15:21;10.30;99.90
5164;DHT22;2601;50.224;10.126;2022-10-30T07:17:54;10.20;99.90
5164;DHT22;2601;50.224;10.126;2022-10-30T07:20:20;10.30;99.90
5164;DHT22;2601;50.224;10.126;2022-10-30T07:22:46;10.60;99.90
5164;DHT22;2601;50.224;10.126;2022-10-30T07:25:11;10.70;99.90
5164;DHT22;2601;50.224;10.126;2022-10-30T07:27:45;10.80;99.90
5164;DHT22;2601;50.224;10.126;2022-10-30T07:30:12;10.80;99.90
5164;DHT22;2601;50.224;10.126;2022-10-30T07:32:38;10.80;99.90
5164;DHT22;2601;50.224;10.126;2022-10-30T07:35:05;10.70;99.90
5164;DHT22;2601;50.224;10.126;2022-10-30T07:37:31;10.70;99.90
5164;DHT22;2601;50.224;10.126;2022-10-30T07:39:56;10.80;99.90
5164;DHT22;2601;50.224;10.126;2022-10-30T07:42:22;10.80;99.90
5164;DHT22;2601;50.224;10.126;2022-10-30T07:44:47;10.90;99.90
5164;DHT22;2601;50.224;10.126;2022-10-30T07:47:13;11.10;99.90
5164;DHT22;2601;50.224;10.126;2022-10-30T07:49:39;11.10;99.90
5164;DHT22;2601;50.224;10.126;2022-10-30T07:52:04;11.10;99.90
5164;DHT22;2601;50.224;10.126;2022-10-30T07:54:30;11.20;99.90
5164;DHT22;2601;50.224;10.126;2022-10-30T07:56:56;11.20;99.90
5164;DHT22;2601;50.224;10.126;2022-10-30T07:59:23;11.30;99.90
5164;DHT22;2601;50.224;10.126;2022-10-30T08:01:49;11.30;99.90
5164;DHT22;2601;50.224;10.126;2022-10-30T08:04:15;11.30;99.90
5164;DHT22;2601;50.224;10.126;2022-10-30T08:06:40;11.40;99.90
5164;DHT22;2601;50.224;10.126;2022-10-30T08:09:06;11.30;99.90
5164;DHT22;2601;50.224;10.126;2022-10-30T08:11:31;11.30;99.90
5164;DHT22;2601;50.224;10.126;2022-10-30T08:13:57;11.50;99.90
5164;DHT22;2601;50.224;10.126;2022-10-30T08:16:23;11.60;99.90
5164;DHT22;2601;50.224;10.126;2022-10-30T08:18:49;11.80;99.90
5164;DHT22;2601;50.224;10.126;2022-10-30T08:21:14;11.90;99.90
5164;DHT22;2601;50.224;10.126;2022-10-30T08:23:40;12.00;99.90
5164;DHT22;2601;50.224;10.126;2022-10-30T08:26:05;12.00;99.90
5164;DHT22;2601;50.224;10.126;2022-10-30T08:28:32;12.20;99.90
5164;DHT22;2601;50.224;10.126;2022-10-30T08:30:58;12.40;99.90
5164;DHT22;2601;50.224;10.126;2022-10-30T08:33:24;12.50;99.90
5164;DHT22;2601;50.224;10.126;2022-10-30T08:35:52;12.70;99.90
5164;DHT22;2601;50.224;10.126;2022-10-30T08:38:18;13.00;99.90
5164;DHT22;2601;50.224;10.126;2022-10-30T08:40:44;13.00;99.90
5164;DHT22;2601;50.224;10.126;2022-10-30T08:43:10;13.30;99.90
5164;DHT22;2601;50.224;10.126;2022-10-30T08:45:36;13.20;99.90
5164;DHT22;2601;50.224;10.126;2022-10-30T08:48:04;13.40;99.90
5164;DHT22;2601;50.224;10.126;2022-10-30T08:50:31;13.80;99.90
5164;DHT22;2601;50.224;10.126;2022-10-30T08:53:02;13.90;99.90
5164;DHT22;2601;50.224;10.126;2022-10-30T08:55:32;13.70;99.90
5164;DHT22;2601;50.224;10.126;2022-10-30T08:57:58;13.80;99.90
5164;DHT22;2601;50.224;10.126;2022-10-30T09:00:24;13.60;99.90
5164;DHT22;2601;50.224;10.126;2022-10-30T09:02:50;13.50;99.90
5164;DHT22;2601;50.224;10.126;2022-10-30T09:05:16;13.70;99.90
5164;DHT22;2601;50.224;10.126;2022-10-30T09:07:41;13.70;99.90
5164;DHT22;2601;50.224;10.126;2022-10-30T09:10:07;13.60;99.90
5164;DHT22;2601;50.224;10.126;2022-10-30T09:12:33;13.50;99.90
5164;DHT22;2601;50.224;10.126;2022-10-30T09:14:59;13.70;99.90
5164;DHT22;2601;50.224;10.126;2022-10-30T09:17:25;13.90;99.90
5164;DHT22;2601;50.224;10.126;2022-10-30T09:19:51;14.30;99.90
5164;DHT22;2601;50.224;10.126;2022-10-30T09:22:17;14.40;99.90
5164;DHT22;2601;50.224;10.126;2022-10-30T09:24:42;14.30;99.90
5164;DHT22;2601;50.224;10.126;2022-10-30T09:27:08;14.50;99.90
5164;DHT22;2601;50.224;10.126;2022-10-30T09:29:34;14.80;99.90
5164;DHT22;2601;50.224;10.126;2022-10-30T09:32:00;15.20;99.90
5164;DHT22;2601;50.224;10.126;2022-10-30T09:34:26;15.20;99.90
5164;DHT22;2601;50.224;10.126;2022-10-30T09:36:52;15.40;99.90
5164;DHT22;2601;50.224;10.126;2022-10-30T09:39:17;15.50;99.90
5164;DHT22;2601;50.224;10.126;2022-10-30T09:53:12;18.80;99.90
5164;DHT22;2601;50.224;10.126;2022-10-30T09:56:17;19.10;99.90
5164;DHT22;2601;50.224;10.126;2022-10-30T10:01:52;18.90;99.90
5164;DHT22;2601;50.224;10.126;2022-10-30T10:04:32;19.50;99.90
5164;DHT22;2601;50.224;10.126;2022-10-30T10:07:01;19.80;99.90
5164;DHT22;2601;50.224;10.126;2022-10-30T10:09:30;19.80;99.90
5164;DHT22;2601;50.224;10.126;2022-10-30T10:12:04;20.00;99.90
5164;DHT22;2601;50.224;10.126;2022-10-30T10:14:34;20.30;99.90
5164;DHT22;2601;50.224;10.126;2022-10-30T10:17:03;20.60;99.90
5164;DHT22;2601;50.224;10.126;2022-10-30T10:19:59;20.60;99.90
5164;DHT22;2601;50.224;10.126;2022-10-30T10:22:33;21.40;99.90
5164;DHT22;2601;50.224;10.126;2022-10-30T10:25:02;22.00;99.90
5164;DHT22;2601;50.224;10.126;2022-10-30T10:31:15;21.80;99.90
5164;DHT22;2601;50.224;10.126;2022-10-30T10:33:57;21.80;99.90
5164;DHT22;2601;50.224;10.126;2022-10-30T10:36:41;21.70;99.90
5164;DHT22;2601;50.224;10.126;2022-10-30T10:39:31;22.90;99.90
5164;DHT22;2601;50.224;10.126;2022-10-30T10:48:00;23.50;99.90
5164;DHT22;2601;50.224;10.126;2022-10-30T10:50:36;23.20;99.90
5164;DHT22;2601;50.224;10.126;2022-10-30T10:53:21;23.30;99.90
5164;DHT22;2601;50.224;10.126;2022-10-30T10:55:51;23.10;99.90
5164;DHT22;2601;50.224;10.126;2022-10-30T10:58:50;23.20;99.90
5164;DHT22;2601;50.224;10.126;2022-10-30T11:01:40;23.40;99.90
5164;DHT22;2601;50.224;10.126;2022-10-30T11:04:16;23.40;99.90
5164;DHT22;2601;50.224;10.126;2022-10-30T11:06:49;23.60;99.90
5164;DHT22;2601;50.224;10.126;2022-10-30T11:09:21;24.00;99.90
5164;DHT22;2601;50.224;10.126;2022-10-30T11:11:51;24.50;99.90
5164;DHT22;2601;50.224;10.126;2022-10-30T11:14:27;24.70;99.90
5164;DHT22;2601;50.224;10.126;2022-10-30T11:19:43;24.90;99.90
5164;DHT22;2601;50.224;10.126;2022-10-30T11:22:20;24.80;99.90
5164;DHT22;2601;50.224;10.126;2022-10-30T11:24:47;25.20;99.90
5164;DHT22;2601;50.224;10.126;2022-10-30T11:27:26;25.60;99.90
5164;DHT22;2601;50.224;10.126;2022-10-30T11:29:58;25.50;99.90
5164;DHT22;2601;50.224;10.126;2022-10-30T11:32:29;24.90;99.90
5164;DHT22;2601;50.224;10.126;2022-10-30T11:37:38;24.70;99.90
5164;DHT22;2601;50.224;10.126;2022-10-30T11:42:38;25.80;99.90
5164;DHT22;2601;50.224;10.126;2022-10-30T11:45:07;25.60;99.90
5164;DHT22;2601;50.224;10.126;2022-10-30T11:47:37;25.80;99.90
5164;DHT22;2601;50.224;10.126;2022-10-30T11:50:05;26.10;99.90
5164;DHT22;2601;50.224;10.126;2022-10-30T11:52:37;26.10;99.90
5164;DHT22;2601;50.224;10.126;2022-10-30T11:57:47;26.70;99.10
5164;DHT22;2601;50.224;10.126;2022-10-30T12:00:20;26.90;98.60
5164;DHT22;2601;50.224;10.126;2022-10-30T12:02:48;26.30;99.80
5164;DHT22;2601;50.224;10.126;2022-10-30T12:10:32;26.10;99.90
5164;DHT22;2601;50.224;10.126;2022-10-30T12:13:03;25.30;99.90
5164;DHT22;2601;50.224;10.126;2022-10-30T12:15:32;25.70;99.90
5164;DHT22;2601;50.224;10.126;2022-10-30T12:18:02;26.40;99.80
5164;DHT22;2601;50.224;10.126;2022-10-30T12:20:29;26.10;99.90
5164;DHT22;2601;50.224;10.126;2022-10-30T12:22:56;26.60;99.10
5164;DHT22;2601;50.224;10.126;2022-10-30T12:25:31;26.50;99.40
5164;DHT22;2601;50.224;10.126;2022-10-30T12:28:06;26.20;99.80
5164;DHT22;2601;50.224;10.126;2022-10-30T12:30:41;26.80;99.00
5164;DHT22;2601;50.224;10.126;2022-10-30T12:33:38;27.10;98.60
5164;DHT22;2601;50.224;10.126;2022-10-30T12:36:09;26.90;99.20
5164;DHT22;2601;50.224;10.126;2022-10-30T12:38:53;27.30;98.30
5164;DHT22;2601;50.224;10.126;2022-10-30T12:44:26;27.50;97.50
5164;DHT22;2601;50.224;10.126;2022-10-30T12:47:24;26.80;97.60
5164;DHT22;2601;50.224;10.126;2022-10-30T12:50:05;27.00;98.30
5164;DHT22;2601;50.224;10.126;2022-10-30T12:52:40;27.30;98.40
5164;DHT22;2601;50.224;10.126;2022-10-30T12:55:18;27.70;97.90
5164;DHT22;2601;50.224;10.126;2022-10-30T12:57:51;28.50;95.70
5164;DHT22;2601;50.224;10.126;2022-10-30T13:00:19;29.10;94.30
5164;DHT22;2601;50.224;10.126;2022-10-30T13:02:58;29.00;94.20
5164;DHT22;2601;50.224;10.126;2022-10-30T13:05:38;29.60;93.60
5164;DHT22;2601;50.224;10.126;2022-10-30T13:11:41;29.70;92.50
5164;DHT22;2601;50.224;10.126;2022-10-30T13:14:16;29.60;91.30
5164;DHT22;2601;50.224;10.126;2022-10-30T13:16:43;29.20;91.50
5164;DHT22;2601;50.224;10.126;2022-10-30T13:19:11;29.10;92.30
5164;DHT22;2601;50.224;10.126;2022-10-30T13:21:59;29.60;92.20
5164;DHT22;2601;50.224;10.126;2022-10-30T13:24:56;29.40;92.10
5164;DHT22;2601;50.224;10.126;2022-10-30T13:30:27;29.00;92.20
5164;DHT22;2601;50.224;10.126;2022-10-30T13:33:11;29.00;92.90
5164;DHT22;2601;50.224;10.126;2022-10-30T13:35:51;29.20;92.50
5164;DHT22;2601;50.224;10.126;2022-10-30T13:38:45;29.30;91.30
5164;DHT22;2601;50.224;10.126;2022-10-30T13:46:49;29.60;91.90
5164;DHT22;2601;50.224;10.126;2022-10-30T13:52:19;29.80;91.50
5164;DHT22;2601;50.224;10.126;2022-10-30T13:55:08;29.80;91.30
5164;DHT22;2601;50.224;10.126;2022-10-30T14:00:45;29.60;91.30
5164;DHT22;2601;50.224;10.126;2022-10-30T14:11:10;29.20;90.70
5164;DHT22;2601;50.224;10.126;2022-10-30T14:14:03;29.30;90.00
5164;DHT22;2601;50.224;10.126;2022-10-30T14:16:38;29.70;88.70
5164;DHT22;2601;50.224;10.126;2022-10-30T14:19:07;30.40;87.40
5164;DHT22;2601;50.224;10.126;2022-10-30T14:21:52;29.90;87.20
5164;DHT22;2601;50.224;10.126;2022-10-30T14:24:30;29.30;88.70
5164;DHT22;2601;50.224;10.126;2022-10-30T14:29:40;29.70;86.90
5164;DHT22;2601;50.224;10.126;2022-10-30T14:39:51;29.50;87.30
5164;DHT22;2601;50.224;10.126;2022-10-30T14:45:13;28.20;84.20
5164;DHT22;2601;50.224;10.126;2022-10-30T14:58:31;24.70;95.00
5164;DHT22;2601;50.224;10.126;2022-10-30T15:03:59;23.40;97.50
5164;DHT22;2601;50.224;10.126;2022-10-30T15:06:43;22.70;99.60
5164;DHT22;2601;50.224;10.126;2022-10-30T15:15:00;20.90;99.90
5164;DHT22;2601;50.224;10.126;2022-10-30T15:19:59;20.30;99.90
5164;DHT22;2601;50.224;10.126;2022-10-30T15:22:27;20.00;99.90
5164;DHT22;2601;50.224;10.126;2022-10-30T15:24:54;19.70;99.90
5164;DHT22;2601;50.224;10.126;2022-10-30T15:27:21;19.50;99.90
5164;DHT22;2601;50.224;10.126;2022-10-30T15:29:52;19.40;99.90
5164;DHT22;2601;50.224;10.126;2022-10-30T15:32:21;19.10;99.90
5164;DHT22;2601;50.224;10.126;2022-10-30T15:37:19;18.80;99.90
5164;DHT22;2601;50.224;10.126;2022-10-30T15:39:45;18.60;99.90
5164;DHT22;2601;50.224;10.126;2022-10-30T15:42:10;18.40;99.90
5164;DHT22;2601;50.224;10.126;2022-10-30T15:44:39;18.20;99.90
5164;DHT22;2601;50.224;10.126;2022-10-30T15:47:15;18.00;99.90
5164;DHT22;2601;50.224;10.126;2022-10-30T15:49:51;17.80;99.90
5164;DHT22;2601;50.224;10.126;2022-10-30T15:52:26;17.60;99.90
5164;DHT22;2601;50.224;10.126;2022-10-30T15:54:58;17.50;99.90
5164;DHT22;2601;50.224;10.126;2022-10-30T15:57:46;17.30;99.90
5164;DHT22;2601;50.224;10.126;2022-10-30T16:02:48;16.90;99.90
5164;DHT22;2601;50.224;10.126;2022-10-30T16:05:23;16.70;99.90
5164;DHT22;2601;50.224;10.126;2022-10-30T16:07:50;16.50;99.90
5164;DHT22;2601;50.224;10.126;2022-10-30T16:10:19;16.30;99.90
5164;DHT22;2601;50.224;10.126;2022-10-30T16:12:44;16.20;99.90
5164;DHT22;2601;50.224;10.126;2022-10-30T16:15:39;16.10;99.90
5164;DHT22;2601;50.224;10.126;2022-10-30T16:18:14;16.00;99.90
5164;DHT22;2601;50.224;10.126;2022-10-30T16:20:44;15.90;99.90
5164;DHT22;2601;50.224;10.126;2022-10-30T16:23:11;15.80;99.90
5164;DHT22;2601;50.224;10.126;2022-10-30T16:25:37;15.70;99.90
5164;DHT22;2601;50.224;10.126;2022-10-30T16:28:50;15.60;99.90
5164;DHT22;2601;50.224;10.126;2022-10-30T16:30:51;15.50;99.90
5164;DHT22;2601;50.224;10.126;2022-10-30T16:33:22;15.50;99.90
5164;DHT22;2601;50.224;10.126;2022-10-30T16:35:50;15.40;99.90
5164;DHT22;2601;50.224;10.126;2022-10-30T16:38:17;15.30;99.90
5164;DHT22;2601;50.224;10.126;2022-10-30T16:40:43;15.10;99.90
5164;DHT22;2601;50.224;10.126;2022-10-30T16:43:27;15.10;99.90
5164;DHT22;2601;50.224;10.126;2022-10-30T16:45:54;15.00;99.90
5164;DHT22;2601;50.224;10.126;2022-10-30T16:48:27;14.90;99.90
5164;DHT22;2601;50.224;10.126;2022-10-30T16:50:59;14.80;99.90
5164;DHT22;2601;50.224;10.126;2022-10-30T16:53:26;14.70;99.90
5164;DHT22;2601;50.224;10.126;2022-10-30T16:55:53;14.60;99.90
5164;DHT22;2601;50.224;10.126;2022-10-30T16:58:20;14.60;99.90
5164;DHT22;2601;50.224;10.126;2022-10-30T17:00:54;14.60;99.90
5164;DHT22;2601;50.224;10.126;2022-10-30T17:03:22;14.60;99.90
5164;DHT22;2601;50.224;10.126;2022-10-30T17:06:24;14.40;99.90
5164;DHT22;2601;50.224;10.126;2022-10-30T17:08:52;14.30;99.90
5164;DHT22;2601;50.224;10.126;2022-10-30T17:11:20;14.30;99.90
5164;DHT22;2601;50.224;10.126;2022-10-30T17:14:15;14.20;99.90
5164;DHT22;2601;50.224;10.126;2022-10-30T17:16:54;14.20;99.90
5164;DHT22;2601;50.224;10.126;2022-10-30T17:19:37;14.10;99.90
5164;DHT22;2601;50.224;10.126;2022-10-30T17:22:08;14.10;99.90
5164;DHT22;2601;50.224;10.126;2022-10-30T17:24:36;14.10;99.90
5164;DHT22;2601;50.224;10.126;2022-10-30T17:27:13;14.00;99.90
5164;DHT22;2601;50.224;10.126;2022-10-30T17:29:46;14.00;99.90
5164;DHT22;2601;50.224;10.126;2022-10-30T17:32:41;13.90;99.90
5164;DHT22;2601;50.224;10.126;2022-10-30T17:35:15;13.70;99.90
5164;DHT22;2601;50.224;10.126;2022-10-30T17:37:41;13.70;99.90
5164;DHT22;2601;50.224;10.126;2022-10-30T17:40:07;13.60;99.90
5164;DHT22;2601;50.224;10.126;2022-10-30T17:42:33;13.60;99.90
5164;DHT22;2601;50.224;10.126;2022-10-30T17:44:59;13.50;99.90
5164;DHT22;2601;50.224;10.126;2022-10-30T17:47:24;13.40;99.90
5164;DHT22;2601;50.224;10.126;2022-10-30T17:49:50;13.40;99.90
5164;DHT22;2601;50.224;10.126;2022-10-30T17:52:17;13.40;99.90
5164;DHT22;2601;50.224;10.126;2022-10-30T17:54:45;13.40;99.90
5164;DHT22;2601;50.224;10.126;2022-10-30T17:57:12;13.40;99.90
5164;DHT22;2601;50.224;10.126;2022-10-30T17:59:40;13.40;99.90
5164;DHT22;2601;50.224;10.126;2022-10-30T18:02:12;13.30;99.90
5164;DHT22;2601;50.224;10.126;2022-10-30T18:04:38;13.30;99.90
5164;DHT22;2601;50.224;10.126;2022-10-30T18:07:07;13.30;99.90
5164;DHT22;2601;50.224;10.126;2022-10-30T18:09:32;13.30;99.90
5164;DHT22;2601;50.224;10.126;2022-10-30T18:11:58;13.20;99.90
5164;DHT22;2601;50.224;10.126;2022-10-30T18:14:24;13.10;99.90
5164;DHT22;2601;50.224;10.126;2022-10-30T18:16:49;13.20;99.90
5164;DHT22;2601;50.224;10.126;2022-10-30T18:19:16;13.00;99.90